Time;durP1;ratioP1;P1;durP2;ratioP2;P2;SDS_P1;SDS_P2;PMS_P1;PMS_P2;Temp;Humidity;BMP_temperature;BMP_pressure;BME280_temperature;BME280_humidity;BME280_pressure;Samples;Min_cycle;Max_cycle;Signal;HPM_P1;HPM_P2
2021/07/30 00:00:57;;;;;;;4.95;3.60;;;17.50;99.20;;;;;;5010611;28;20030;-53
2021/07/30 00:03:23;;;;;;;5.90;3.47;;;17.50;99.30;;;;;;5010727;28;20445;-50
2021/07/30 00:05:53;;;;;;;4.32;3.10;;;17.50;99.40;;;;;;5010679;28;20464;-51
2021/07/30 00:08:19;;;;;;;3.97;2.72;;;17.50;99.60;;;;;;5010612;28;20022;-46
2021/07/30 00:10:46;;;;;;;2.40;2.20;;;17.50;99.70;;;;;;5010567;28;20030;-46
2021/07/30 00:13:12;;;;;;;3.88;2.92;;;17.30;99.90;;;;;;5010597;28;20026;-48
2021/07/30 00:15:37;;;;;;;2.60;2.40;;;17.30;99.90;;;;;;5010565;28;20049;-46
2021/07/30 00:18:03;;;;;;;3.83;2.60;;;17.30;99.80;;;;;;5010726;28;20084;-48
2021/07/30 00:20:28;;;;;;;3.78;2.67;;;17.30;99.90;;;;;;5010654;28;20026;-48
2021/07/30 00:22:54;;;;;;;6.72;2.42;;;17.20;99.90;;;;;;5010444;28;20041;-50
2021/07/30 00:25:20;;;;;;;4.10;2.92;;;17.20;99.90;;;;;;5010520;28;20368;-49
2021/07/30 00:27:45;;;;;;;4.32;2.90;;;17.10;99.90;;;;;;5012686;28;20144;-47
2021/07/30 00:30:11;;;;;;;4.65;2.40;;;17.10;99.90;;;;;;5013928;28;20109;-47
2021/07/30 00:32:37;;;;;;;6.22;2.80;;;17.00;99.90;;;;;;5014344;28;20041;-50
2021/07/30 00:35:03;;;;;;;2.60;2.40;;;17.10;99.90;;;;;;5014359;28;20022;-46
2021/07/30 00:37:28;;;;;;;4.90;2.50;;;17.10;99.90;;;;;;5014400;28;20030;-48
2021/07/30 00:39:54;;;;;;;6.10;3.05;;;17.00;99.90;;;;;;5014045;28;20026;-47
2021/07/30 00:42:19;;;;;;;5.30;2.95;;;17.00;99.90;;;;;;5014001;28;20462;-48
2021/07/30 00:44:45;;;;;;;4.13;2.33;;;17.10;99.90;;;;;;5013993;28;20037;-48
2021/07/30 00:47:11;;;;;;;5.05;2.80;;;17.00;99.90;;;;;;5014206;28;20443;-46
2021/07/30 00:49:37;;;;;;;6.35;2.88;;;17.00;99.90;;;;;;5014078;28;20061;-47
2021/07/30 00:52:03;;;;;;;9.30;2.67;;;17.00;99.90;;;;;;5014101;28;20057;-46
2021/07/30 00:54:29;;;;;;;9.43;3.20;;;17.10;99.90;;;;;;5013780;28;20034;-50
2021/07/30 00:56:55;;;;;;;7.05;3.83;;;17.10;99.90;;;;;;5013985;28;20533;-49
2021/07/30 00:59:22;;;;;;;2.85;2.50;;;17.00;99.90;;;;;;5013699;28;20057;-49
2021/07/30 01:01:49;;;;;;;11.07;3.03;;;17.10;99.90;;;;;;5013884;28;20022;-53
2021/07/30 01:04:14;;;;;;;4.10;3.38;;;17.10;99.90;;;;;;5013958;28;20026;-46
2021/07/30 01:06:40;;;;;;;5.82;3.22;;;17.10;99.90;;;;;;5013676;28;20030;-53
2021/07/30 01:09:07;;;;;;;4.07;3.15;;;17.20;99.90;;;;;;5013253;28;20029;-50
2021/07/30 01:11:33;;;;;;;6.07;3.10;;;17.20;99.90;;;;;;5013649;28;20083;-47
2021/07/30 01:13:58;;;;;;;5.32;3.17;;;17.20;99.90;;;;;;5013615;28;20025;-51
2021/07/30 01:16:24;;;;;;;5.32;2.92;;;17.20;99.90;;;;;;5013279;28;20044;-50
2021/07/30 01:18:49;;;;;;;3.78;3.17;;;17.20;99.90;;;;;;5013266;28;20091;-48
2021/07/30 01:21:21;;;;;;;5.53;3.38;;;17.30;99.90;;;;;;5013578;28;20026;-46
2021/07/30 01:23:50;;;;;;;7.07;3.10;;;17.30;99.90;;;;;;5013461;28;20089;-51
2021/07/30 01:26:16;;;;;;;4.43;3.03;;;17.20;99.90;;;;;;5013512;28;20037;-46
2021/07/30 01:28:43;;;;;;;3.28;2.97;;;17.20;99.90;;;;;;5012985;28;20041;-52
2021/07/30 01:31:08;;;;;;;6.97;4.00;;;17.10;99.90;;;;;;5013414;28;20030;-47
2021/07/30 01:33:34;;;;;;;3.42;3.13;;;17.00;99.90;;;;;;5013407;28;20505;-46
2021/07/30 01:35:59;;;;;;;5.50;3.28;;;17.00;99.90;;;;;;5013375;28;20032;-46
2021/07/30 01:38:25;;;;;;;4.72;3.17;;;16.90;99.90;;;;;;5012241;28;20034;-51
2021/07/30 01:40:50;;;;;;;6.38;3.30;;;16.90;99.90;;;;;;5013012;28;20030;-48
2021/07/30 01:43:16;;;;;;;5.07;3.17;;;16.80;99.90;;;;;;5013126;28;20549;-47
2021/07/30 01:45:41;;;;;;;4.22;3.33;;;16.80;99.90;;;;;;5012565;28;20400;-46
2021/07/30 01:48:07;;;;;;;7.60;4.40;;;16.80;99.90;;;;;;5013089;28;20069;-46
2021/07/30 01:50:32;;;;;;;5.03;3.30;;;16.80;99.90;;;;;;5012770;28;20036;-49
2021/07/30 01:52:58;;;;;;;5.15;3.42;;;16.80;99.90;;;;;;5012667;28;20517;-48
2021/07/30 01:55:24;;;;;;;6.38;4.00;;;16.80;99.90;;;;;;5012855;28;20022;-52
2021/07/30 01:57:50;;;;;;;6.43;3.45;;;16.80;99.90;;;;;;5012892;28;20026;-52
2021/07/30 02:00:15;;;;;;;6.18;3.00;;;16.90;99.90;;;;;;5012629;28;20022;-51
2021/07/30 02:02:41;;;;;;;3.13;2.83;;;16.90;99.90;;;;;;5012481;28;20056;-45
2021/07/30 02:05:07;;;;;;;3.10;2.80;;;16.80;99.90;;;;;;5012734;28;20483;-50
2021/07/30 02:07:36;;;;;;;9.23;4.95;;;16.80;99.90;;;;;;5012615;28;20030;-51
2021/07/30 02:10:03;;;;;;;7.30;3.20;;;16.70;99.90;;;;;;5012365;28;20030;-49
2021/07/30 02:12:29;;;;;;;8.25;3.83;;;16.70;99.90;;;;;;5012443;28;20149;-48
2021/07/30 02:14:54;;;;;;;4.93;3.60;;;16.60;99.90;;;;;;5012050;28;20626;-50
2021/07/30 02:17:20;;;;;;;4.80;3.42;;;16.60;99.90;;;;;;5012581;28;20040;-50
2021/07/30 02:19:45;;;;;;;5.32;3.03;;;16.60;99.90;;;;;;5012106;28;20022;-47
2021/07/30 02:22:11;;;;;;;3.85;3.40;;;16.50;99.90;;;;;;5012496;28;20109;-48
2021/07/30 02:24:36;;;;;;;4.22;3.20;;;16.50;99.90;;;;;;5012356;28;20108;-50
2021/07/30 02:29:48;;;;;;;3.80;2.83;;;16.40;99.90;;;;;;5028789;28;20064;-48
2021/07/30 02:32:13;;;;;;;3.47;3.08;;;16.40;99.90;;;;;;5031935;28;20022;-45
2021/07/30 02:34:39;;;;;;;5.45;3.53;;;16.30;99.90;;;;;;5032013;28;20104;-46
2021/07/30 02:37:05;;;;;;;5.35;3.28;;;16.30;99.90;;;;;;5031907;28;20044;-43
2021/07/30 02:39:30;;;;;;;3.65;3.22;;;16.30;99.90;;;;;;5030865;28;20052;-44
2021/07/30 02:41:55;;;;;;;6.43;3.15;;;16.30;99.90;;;;;;5031758;28;20410;-47
2021/07/30 02:44:21;;;;;;;4.45;3.00;;;16.20;99.90;;;;;;5030581;28;20029;-47
2021/07/30 02:46:46;;;;;;;5.13;3.40;;;16.20;99.90;;;;;;5030512;28;20531;-45
2021/07/30 02:49:12;;;;;;;3.78;3.30;;;16.20;99.90;;;;;;5030939;28;20100;-44
2021/07/30 02:51:37;;;;;;;7.22;4.05;;;16.10;99.90;;;;;;5030412;28;20530;-45
2021/07/30 02:54:03;;;;;;;5.15;3.70;;;16.10;99.90;;;;;;5031498;28;20037;-43
2021/07/30 02:56:28;;;;;;;3.58;3.17;;;16.10;99.90;;;;;;5031799;28;20633;-42
2021/07/30 02:58:54;;;;;;;8.50;4.78;;;16.00;99.90;;;;;;5029437;28;20026;-43
2021/07/30 03:01:19;;;;;;;6.28;4.28;;;16.00;99.90;;;;;;5031398;28;20018;-45
2021/07/30 03:03:45;;;;;;;6.13;5.13;;;15.90;99.90;;;;;;5031431;28;20399;-42
2021/07/30 03:06:10;;;;;;;5.53;4.15;;;16.00;99.90;;;;;;5031555;28;20033;-43
2021/07/30 03:08:36;;;;;;;6.00;4.18;;;16.00;99.90;;;;;;5029771;28;20546;-39
2021/07/30 03:11:01;;;;;;;6.45;3.85;;;16.00;99.90;;;;;;5031488;28;20029;-43
2021/07/30 03:13:27;;;;;;;5.15;4.07;;;16.00;99.90;;;;;;5031417;28;20100;-42
2021/07/30 03:15:54;;;;;;;6.20;4.35;;;16.00;99.90;;;;;;5031418;28;20021;-43
2021/07/30 03:18:20;;;;;;;5.25;4.32;;;16.00;99.90;;;;;;5031390;28;20466;-47
2021/07/30 03:20:45;;;;;;;5.72;4.00;;;16.00;99.90;;;;;;5030463;28;20101;-45
2021/07/30 03:23:10;;;;;;;6.07;4.07;;;16.00;99.90;;;;;;5030049;28;20025;-43
2021/07/30 03:25:36;;;;;;;7.07;3.88;;;15.90;99.90;;;;;;5031057;28;20033;-47
2021/07/30 03:28:02;;;;;;;4.53;4.13;;;15.90;99.90;;;;;;5030987;28;20106;-42
2021/07/30 03:30:27;;;;;;;8.18;4.68;;;15.90;99.90;;;;;;5029161;28;20021;-45
2021/07/30 03:32:53;;;;;;;9.13;3.72;;;15.80;99.90;;;;;;5031248;28;20033;-44
2021/07/30 03:35:18;;;;;;;4.40;4.00;;;15.80;99.90;;;;;;5031051;28;20018;-44
2021/07/30 03:37:46;;;;;;;5.88;3.60;;;15.80;99.90;;;;;;5030907;28;20033;-43
2021/07/30 03:40:12;;;;;;;3.70;3.38;;;15.80;99.90;;;;;;5030451;28;20052;-43
2021/07/30 03:42:37;;;;;;;5.65;3.88;;;15.80;99.90;;;;;;5030769;28;20060;-46
2021/07/30 03:45:03;;;;;;;9.88;3.95;;;15.80;99.90;;;;;;5029219;28;20055;-47
2021/07/30 03:47:28;;;;;;;4.22;3.58;;;15.70;99.90;;;;;;5030610;28;20032;-46
2021/07/30 03:49:54;;;;;;;5.15;4.65;;;15.60;99.90;;;;;;5030045;28;20044;-44
2021/07/30 03:52:19;;;;;;;4.22;3.60;;;15.70;99.90;;;;;;5030576;28;20033;-43
2021/07/30 03:54:45;;;;;;;5.28;3.80;;;15.70;99.90;;;;;;5030599;28;20056;-49
2021/07/30 03:57:10;;;;;;;11.77;4.10;;;15.60;99.90;;;;;;5030616;28;20129;-50
2021/07/30 03:59:36;;;;;;;4.10;3.80;;;15.60;99.90;;;;;;5029714;28;20037;-44
2021/07/30 04:02:01;;;;;;;6.18;3.92;;;15.60;99.90;;;;;;5030299;28;20025;-46
2021/07/30 04:04:27;;;;;;;4.43;3.55;;;15.60;99.90;;;;;;5030514;28;20028;-44
2021/07/30 04:06:52;;;;;;;5.20;4.32;;;15.60;99.90;;;;;;5030448;28;20052;-48
2021/07/30 04:09:18;;;;;;;4.38;4.00;;;15.60;99.90;;;;;;5029641;28;20036;-45
2021/07/30 04:11:44;;;;;;;4.45;4.05;;;15.60;99.90;;;;;;5028716;28;20415;-47
2021/07/30 04:14:09;;;;;;;5.20;4.10;;;15.60;99.90;;;;;;5030479;28;20025;-46
2021/07/30 04:16:36;;;;;;;5.38;4.00;;;15.60;99.90;;;;;;5030384;28;20029;-44
2021/07/30 04:19:08;;;;;;;7.57;4.13;;;15.60;99.90;;;;;;5029537;28;20441;-43
2021/07/30 04:21:34;;;;;;;4.80;3.60;;;15.60;99.90;;;;;;5030127;28;20486;-42
2021/07/30 04:24:01;;;;;;;7.05;3.67;;;15.60;99.90;;;;;;5027974;28;20108;-49
2021/07/30 04:26:26;;;;;;;4.78;3.88;;;15.60;99.90;;;;;;5015740;28;20048;-43
2021/07/30 04:28:52;;;;;;;9.85;4.05;;;15.60;99.90;;;;;;5012493;28;20056;-47
2021/07/30 04:31:17;;;;;;;5.30;3.90;;;15.60;99.90;;;;;;5013811;28;20369;-44
2021/07/30 04:33:43;;;;;;;6.78;3.85;;;15.60;99.90;;;;;;5014908;28;20109;-48
2021/07/30 04:36:15;;;;;;;6.63;3.70;;;15.70;99.90;;;;;;5012731;28;20061;-45
2021/07/30 04:38:42;;;;;;;7.85;4.40;;;15.70;99.90;;;;;;5012939;28;20018;-46
2021/07/30 04:41:08;;;;;;;6.15;4.95;;;15.70;99.90;;;;;;5013179;28;20109;-45
2021/07/30 04:43:33;;;;;;;4.57;3.70;;;15.70;99.90;;;;;;5011265;28;20563;-50
2021/07/30 04:45:59;;;;;;;5.30;4.20;;;15.80;99.90;;;;;;5022155;28;20033;-46
2021/07/30 04:48:24;;;;;;;6.32;4.80;;;15.80;99.90;;;;;;5030627;28;20056;-45
2021/07/30 04:50:50;;;;;;;5.72;4.03;;;15.90;99.90;;;;;;5019140;28;20033;-50
2021/07/30 04:53:15;;;;;;;5.68;3.55;;;15.90;99.90;;;;;;5026803;28;20460;-47
2021/07/30 04:55:41;;;;;;;8.52;4.30;;;15.90;99.90;;;;;;5010434;28;20029;-46
2021/07/30 04:58:06;;;;;;;7.85;4.28;;;16.00;99.90;;;;;;5010386;28;20030;-42
2021/07/30 05:00:32;;;;;;;7.75;4.15;;;16.00;99.90;;;;;;5020591;28;20511;-43
2021/07/30 05:02:57;;;;;;;9.10;4.22;;;16.00;99.90;;;;;;5021815;28;20045;-43
2021/07/30 05:05:23;;;;;;;4.28;3.85;;;16.10;99.90;;;;;;5010243;28;20037;-43
2021/07/30 05:07:48;;;;;;;10.30;4.65;;;16.20;99.90;;;;;;5010158;28;20121;-45
2021/07/30 05:10:15;;;;;;;9.65;4.05;;;16.30;99.90;;;;;;5008629;28;20018;-47
2021/07/30 05:12:40;;;;;;;5.60;3.40;;;16.30;99.90;;;;;;5010359;28;20022;-44
2021/07/30 05:15:06;;;;;;;3.75;3.35;;;16.40;99.90;;;;;;5012738;28;20029;-44
2021/07/30 05:17:32;;;;;;;6.03;3.70;;;16.50;99.90;;;;;;5013664;28;20112;-47
2021/07/30 05:19:57;;;;;;;4.13;3.72;;;16.60;99.90;;;;;;5012914;28;20022;-48
2021/07/30 05:22:23;;;;;;;3.60;3.30;;;16.70;99.90;;;;;;5013711;28;20030;-47
2021/07/30 05:24:48;;;;;;;9.30;3.78;;;16.80;99.90;;;;;;5013596;28;20494;-44
2021/07/30 05:27:15;;;;;;;4.75;3.85;;;16.90;99.90;;;;;;5013449;28;20114;-49
2021/07/30 05:29:40;;;;;;;5.82;3.47;;;17.00;99.90;;;;;;5012772;28;20034;-47
2021/07/30 05:32:09;;;;;;;5.32;3.70;;;17.00;99.90;;;;;;5013172;28;20052;-45
2021/07/30 05:34:34;;;;;;;7.68;4.18;;;17.10;99.90;;;;;;5013146;28;20026;-43
2021/07/30 05:37:00;;;;;;;5.50;3.90;;;17.10;99.90;;;;;;5013360;28;20057;-47
2021/07/30 05:39:25;;;;;;;4.85;4.03;;;17.10;99.90;;;;;;5012357;28;20022;-43
2021/07/30 05:41:51;;;;;;;6.07;3.95;;;17.30;99.90;;;;;;5012049;28;20029;-43
2021/07/30 05:44:17;;;;;;;6.32;3.83;;;17.30;99.90;;;;;;5013308;28;20029;-44
2021/07/30 05:46:42;;;;;;;8.43;3.38;;;17.30;99.90;;;;;;5013177;28;20064;-48
2021/07/30 05:49:08;;;;;;;6.57;4.05;;;17.40;99.90;;;;;;5010999;28;20018;-44
2021/07/30 05:51:34;;;;;;;5.03;3.88;;;17.40;99.90;;;;;;5012938;28;20026;-43
2021/07/30 05:53:59;;;;;;;5.90;3.22;;;17.50;99.90;;;;;;5013312;28;20030;-45
2021/07/30 05:56:25;;;;;;;6.15;3.70;;;17.50;99.90;;;;;;5013355;28;20483;-43
2021/07/30 05:58:50;;;;;;;4.97;3.80;;;17.60;99.90;;;;;;5012474;28;20030;-46
2021/07/30 06:01:16;;;;;;;6.78;4.15;;;17.70;99.90;;;;;;5013441;28;20018;-43
2021/07/30 06:03:42;;;;;;;5.05;4.22;;;17.80;99.90;;;;;;5012865;28;20109;-46
2021/07/30 06:06:07;;;;;;;3.60;3.30;;;17.90;99.90;;;;;;5012985;28;20037;-45
2021/07/30 06:08:33;;;;;;;7.75;3.95;;;18.00;99.90;;;;;;5012565;28;20030;-47
2021/07/30 06:10:58;;;;;;;4.68;3.80;;;18.20;99.90;;;;;;5012606;28;20034;-44
2021/07/30 06:13:24;;;;;;;8.10;3.63;;;18.20;99.90;;;;;;5012601;28;20081;-45
2021/07/30 06:15:49;;;;;;;8.05;3.38;;;18.40;99.90;;;;;;5012678;28;20053;-49
2021/07/30 06:18:15;;;;;;;6.82;3.38;;;18.50;99.90;;;;;;5012560;28;20030;-45
2021/07/30 06:20:40;;;;;;;3.97;2.90;;;18.60;99.90;;;;;;5012231;28;20018;-43
2021/07/30 06:23:06;;;;;;;3.83;3.42;;;18.70;99.90;;;;;;5012574;28;20065;-44
2021/07/30 06:25:32;;;;;;;3.78;3.17;;;18.60;99.90;;;;;;5012590;28;20026;-43
2021/07/30 06:27:57;;;;;;;3.70;2.97;;;18.60;99.90;;;;;;5012453;28;20068;-47
2021/07/30 06:30:23;;;;;;;4.07;3.42;;;18.60;99.90;;;;;;5011866;28;20480;-47
2021/07/30 06:32:49;;;;;;;4.40;3.42;;;18.60;99.90;;;;;;5012684;28;20029;-47
2021/07/30 06:35:15;;;;;;;4.60;3.35;;;18.60;99.90;;;;;;5012995;28;20032;-44
2021/07/30 06:37:42;;;;;;;7.05;3.88;;;18.60;99.90;;;;;;5012174;28;20048;-44
2021/07/30 06:40:08;;;;;;;5.95;3.65;;;18.70;99.90;;;;;;5011681;28;20053;-48
2021/07/30 06:42:37;;;;;;;6.03;3.45;;;18.80;99.90;;;;;;5012416;28;20442;-43
2021/07/30 06:45:04;;;;;;;4.25;3.78;;;18.90;99.90;;;;;;5012752;28;20057;-44
2021/07/30 06:47:29;;;;;;;3.85;3.55;;;19.00;99.90;;;;;;5013216;28;20029;-49
2021/07/30 06:49:55;;;;;;;5.13;3.42;;;19.00;99.90;;;;;;5019908;28;20033;-45
2021/07/30 06:52:21;;;;;;;8.85;4.45;;;19.10;99.90;;;;;;5014493;28;20022;-44
2021/07/30 06:54:46;;;;;;;5.68;3.70;;;19.10;99.30;;;;;;5013700;28;20574;-46
2021/07/30 06:57:13;;;;;;;5.53;3.88;;;19.20;99.60;;;;;;5012702;28;20022;-50
2021/07/30 06:59:39;;;;;;;5.95;3.88;;;19.20;99.80;;;;;;5012226;28;20022;-45
2021/07/30 07:02:04;;;;;;;5.97;3.55;;;19.30;99.70;;;;;;5027020;28;20044;-47
2021/07/30 07:04:30;;;;;;;7.72;3.85;;;19.40;99.70;;;;;;5012353;28;20037;-48
2021/07/30 07:06:57;;;;;;;5.43;3.83;;;19.60;99.50;;;;;;5014693;28;20058;-52
2021/07/30 07:09:26;;;;;;;5.15;3.53;;;19.70;99.40;;;;;;5011640;28;20033;-55
2021/07/30 07:11:51;;;;;;;3.58;3.28;;;19.80;99.10;;;;;;5009268;28;20119;-55
2021/07/30 07:14:17;;;;;;;10.55;3.80;;;19.90;98.80;;;;;;5019786;28;20072;-53
2021/07/30 07:16:43;;;;;;;4.10;3.20;;;20.00;98.50;;;;;;5019364;28;20017;-59
2021/07/30 07:19:09;;;;;;;4.20;3.58;;;20.20;98.00;;;;;;5012652;28;20042;-52
2021/07/30 07:21:36;;;;;;;5.10;3.10;;;20.30;97.80;;;;;;5020255;28;20026;-53
2021/07/30 07:24:02;;;;;;;18.77;3.05;;;20.30;97.90;;;;;;5014857;28;20100;-56
2021/07/30 07:26:28;;;;;;;8.93;3.30;;;20.30;98.30;;;;;;5011066;28;20037;-49
2021/07/30 07:28:53;;;;;;;6.38;4.00;;;20.40;97.80;;;;;;5010256;28;20033;-49
2021/07/30 07:31:19;;;;;;;6.40;3.00;;;20.50;97.90;;;;;;5028463;28;20025;-52
2021/07/30 07:33:44;;;;;;;4.57;2.80;;;20.50;98.10;;;;;;5030147;28;20113;-51
2021/07/30 07:36:10;;;;;;;4.55;3.38;;;20.60;97.50;;;;;;5013710;28;20030;-47
2021/07/30 07:38:35;;;;;;;7.97;2.88;;;20.60;96.90;;;;;;5010180;28;20102;-53
2021/07/30 07:41:01;;;;;;;5.88;3.20;;;20.70;97.30;;;;;;5022703;28;20060;-56
2021/07/30 07:43:27;;;;;;;9.93;3.10;;;20.80;96.70;;;;;;5030587;28;20018;-49
2021/07/30 07:45:52;;;;;;;6.78;3.63;;;20.70;96.90;;;;;;5017334;28;20356;-54
2021/07/30 07:48:18;;;;;;;33.65;22.58;;;20.80;97.00;;;;;;5030415;28;20036;-55
2021/07/30 07:50:43;;;;;;;17.80;13.38;;;20.80;97.20;;;;;;5022481;28;20021;-53
2021/07/30 07:53:16;;;;;;;3.88;3.50;;;20.90;96.80;;;;;;5029358;28;20489;-57
2021/07/30 07:55:42;;;;;;;4.90;3.75;;;21.30;96.50;;;;;;5015393;28;20199;-51
2021/07/30 07:58:07;;;;;;;10.32;3.28;;;21.50;95.90;;;;;;5011015;28;20277;-53
2021/07/30 08:00:33;;;;;;;4.15;3.08;;;21.70;95.80;;;;;;5011843;28;20104;-51
2021/07/30 08:02:58;;;;;;;5.43;2.90;;;22.10;95.80;;;;;;5011930;28;20113;-48
2021/07/30 08:05:24;;;;;;;5.60;2.88;;;22.90;95.30;;;;;;5011516;28;20113;-44
2021/07/30 08:07:49;;;;;;;3.28;2.47;;;24.00;93.30;;;;;;5018179;28;20041;-46
2021/07/30 08:10:15;;;;;;;3.08;2.45;;;24.90;92.40;;;;;;5030754;28;20036;-52
2021/07/30 08:12:40;;;;;;;2.55;2.30;;;26.20;90.50;;;;;;5029034;28;20553;-48
2021/07/30 08:15:07;;;;;;;6.47;2.80;;;27.20;87.80;;;;;;5030446;28;20049;-56
2021/07/30 08:17:34;;;;;;;8.82;2.30;;;28.10;86.10;;;;;;5025235;28;20037;-46
2021/07/30 08:20:00;;;;;;;5.20;2.88;;;29.20;82.20;;;;;;5010535;28;20032;-49
2021/07/30 08:22:25;;;;;;;2.70;2.35;;;29.80;77.50;;;;;;5010898;28;20466;-47
2021/07/30 08:24:51;;;;;;;5.22;2.08;;;30.30;76.00;;;;;;5022056;28;20484;-48
2021/07/30 08:27:16;;;;;;;3.13;2.08;;;30.70;74.90;;;;;;5010840;28;20114;-51
2021/07/30 08:29:42;;;;;;;3.17;1.85;;;31.20;73.20;;;;;;5048592;23;20045;-54
2021/07/30 08:32:09;;;;;;;7.03;2.83;;;31.90;71.70;;;;;;5050097;28;20025;-53
2021/07/30 08:34:39;;;;;;;5.47;2.20;;;32.40;68.90;;;;;;5034777;28;20018;-54
2021/07/30 08:37:06;;;;;;;25.70;22.98;;;32.60;68.50;;;;;;5024600;28;20094;-50
2021/07/30 08:39:31;;;;;;;4.53;3.10;;;32.70;68.40;;;;;;5030127;28;20022;-55
2021/07/30 08:41:59;;;;;;;3.25;2.30;;;33.00;64.90;;;;;;5044199;28;20139;-51
2021/07/30 08:44:25;;;;;;;2.67;2.25;;;33.00;65.70;;;;;;5032702;28;20035;-51
2021/07/30 08:46:52;;;;;;;6.00;2.25;;;32.80;65.50;;;;;;5051656;28;20025;-54
2021/07/30 08:49:18;;;;;;;4.00;2.10;;;32.40;65.00;;;;;;5054676;28;20036;-48
2021/07/30 08:51:46;;;;;;;5.78;2.15;;;31.90;65.30;;;;;;5055059;28;20025;-55
2021/07/30 08:54:11;;;;;;;6.65;2.20;;;31.40;64.70;;;;;;5055325;28;20053;-52
2021/07/30 08:56:37;;;;;;;2.60;2.40;;;30.70;67.30;;;;;;5054869;28;20021;-51
2021/07/30 08:59:04;;;;;;;4.55;2.42;;;30.00;67.60;;;;;;5054448;28;20021;-49
2021/07/30 09:01:29;;;;;;;4.13;2.78;;;29.80;69.50;;;;;;5054704;28;20071;-48
2021/07/30 09:03:55;;;;;;;2.45;2.20;;;29.80;70.50;;;;;;5055027;28;20029;-54
2021/07/30 09:06:22;;;;;;;2.92;2.40;;;29.70;68.40;;;;;;5054570;28;20159;-53
2021/07/30 09:08:54;;;;;;;4.35;2.17;;;29.40;69.10;;;;;;5036433;28;20032;-55
2021/07/30 09:11:27;;;;;;;4.63;2.70;;;29.30;68.50;;;;;;5055080;28;20064;-51
2021/07/30 09:13:53;;;;;;;2.38;2.17;;;29.00;68.20;;;;;;5054542;28;20029;-50
2021/07/30 09:16:18;;;;;;;8.90;2.80;;;28.60;68.80;;;;;;5036781;28;20080;-53
2021/07/30 09:18:45;;;;;;;3.97;2.47;;;28.40;70.20;;;;;;5053915;28;20024;-54
2021/07/30 09:21:26;;;;;;;7.60;2.35;;;28.20;71.40;;;;;;5036833;28;20067;-54
2021/07/30 09:23:55;;;;;;;4.55;2.50;;;28.20;71.90;;;;;;5055055;28;20025;-52
2021/07/30 09:26:42;;;;;;;2.53;2.20;;;28.30;73.00;;;;;;5054347;28;20070;-50
2021/07/30 09:29:10;;;;;;;4.28;2.53;;;28.10;72.10;;;;;;5036737;28;20079;-49
2021/07/30 09:31:37;;;;;;;4.75;3.20;;;28.30;73.60;;;;;;5054933;28;20029;-51
2021/07/30 09:34:20;;;;;;;4.35;2.55;;;28.20;71.00;;;;;;5054529;28;20102;-52
2021/07/30 09:36:50;;;;;;;3.42;2.28;;;28.50;70.90;;;;;;5054381;28;20078;-53
2021/07/30 09:39:17;;;;;;;2.95;2.13;;;28.20;68.90;;;;;;5054050;28;20017;-52
2021/07/30 09:41:51;;;;;;;4.35;2.30;;;28.30;69.20;;;;;;5054314;28;20060;-55
2021/07/30 09:44:18;;;;;;;3.65;2.28;;;28.50;68.90;;;;;;5054053;28;20017;-51
2021/07/30 09:47:00;;;;;;;5.10;3.03;;;28.40;69.10;;;;;;5054001;28;20067;-53
2021/07/30 09:49:38;;;;;;;4.00;2.40;;;28.10;68.20;;;;;;5053787;28;20030;-49
2021/07/30 09:52:07;;;;;;;6.55;2.50;;;27.80;69.50;;;;;;5053759;28;20025;-51
2021/07/30 09:54:33;;;;;;;5.65;2.65;;;27.80;70.30;;;;;;5053581;28;20502;-56
2021/07/30 09:57:01;;;;;;;3.97;2.50;;;27.70;70.30;;;;;;5054586;28;20149;-53
2021/07/30 09:59:31;;;;;;;5.88;2.42;;;27.80;70.60;;;;;;5055366;28;20025;-59
2021/07/30 10:01:56;;;;;;;5.55;2.35;;;27.90;71.50;;;;;;5055274;28;20049;-52
2021/07/30 10:04:26;;;;;;;6.47;2.65;;;27.70;72.50;;;;;;5054847;28;20434;-52
2021/07/30 10:06:51;;;;;;;14.90;13.27;;;27.50;70.60;;;;;;5055380;28;20512;-52
2021/07/30 10:09:19;;;;;;;35.75;24.83;;;27.40;70.70;;;;;;5054147;28;20025;-55
2021/07/30 10:11:47;;;;;;;19.02;10.55;;;27.20;71.40;;;;;;5053716;28;20032;-55
2021/07/30 10:14:17;;;;;;;3.47;2.72;;;26.70;72.10;;;;;;5054062;28;20056;-53
2021/07/30 10:16:59;;;;;;;5.30;3.00;;;26.60;72.50;;;;;;5053662;28;20449;-55
2021/07/30 10:19:25;;;;;;;4.95;2.33;;;26.30;72.10;;;;;;5053527;28;20021;-54
2021/07/30 10:21:53;;;;;;;3.88;2.78;;;26.20;74.30;;;;;;5053362;28;20092;-53
2021/07/30 10:24:20;;;;;;;2.42;2.30;;;26.10;75.00;;;;;;5052819;28;20025;-49
2021/07/30 10:26:46;;;;;;;8.90;3.13;;;26.00;75.10;;;;;;5052943;28;20021;-55
2021/07/30 10:29:14;;;;;;;4.35;2.47;;;25.90;74.70;;;;;;5050933;28;20063;-52
2021/07/30 10:31:48;;;;;;;3.83;2.90;;;25.80;74.20;;;;;;5051304;28;20036;-55
2021/07/30 10:34:14;;;;;;;5.15;2.75;;;26.00;75.50;;;;;;5051467;28;20021;-54
2021/07/30 10:36:39;;;;;;;9.82;4.75;;;26.20;74.50;;;;;;5051435;28;20025;-52
2021/07/30 10:39:15;;;;;;;3.45;3.05;;;26.00;74.00;;;;;;5052468;28;20057;-49
2021/07/30 10:42:00;;;;;;;8.40;2.25;;;25.90;74.80;;;;;;5052776;28;20021;-52
2021/07/30 10:44:26;;;;;;;3.75;2.90;;;25.90;73.40;;;;;;5037491;28;20054;-55
2021/07/30 10:47:20;;;;;;;6.93;2.30;;;25.50;75.80;;;;;;5052686;28;20060;-53
2021/07/30 10:49:46;;;;;;;5.20;2.28;;;25.50;75.70;;;;;;5052386;28;20025;-55
2021/07/30 10:52:25;;;;;;;4.32;2.50;;;25.50;76.50;;;;;;5052544;28;20032;-53
2021/07/30 10:54:50;;;;;;;2.35;2.15;;;25.60;76.40;;;;;;5052403;28;20072;-53
2021/07/30 10:57:49;;;;;;;4.80;2.72;;;25.70;76.00;;;;;;5052351;28;20466;-52
2021/07/30 11:00:14;;;;;;;5.40;2.83;;;25.90;75.30;;;;;;5052029;28;20021;-54
2021/07/30 11:02:59;;;;;;;3.42;2.50;;;25.80;74.10;;;;;;5052510;28;20441;-49
2021/07/30 11:05:24;;;;;;;2.97;2.78;;;25.80;75.60;;;;;;5052711;28;20059;-52
2021/07/30 11:07:59;;;;;;;5.35;2.72;;;25.90;75.00;;;;;;5052682;28;20510;-52
2021/07/30 11:10:24;;;;;;;4.15;2.88;;;25.80;75.90;;;;;;5052170;28;20048;-52
2021/07/30 11:12:53;;;;;;;6.43;2.53;;;25.70;74.90;;;;;;5051413;28;20071;-51
2021/07/30 11:15:19;;;;;;;8.07;2.60;;;25.60;75.40;;;;;;5053227;28;20032;-54
2021/07/30 11:17:48;;;;;;;3.75;2.53;;;25.70;75.80;;;;;;5052328;28;20398;-53
2021/07/30 11:20:13;;;;;;;5.18;2.47;;;25.70;75.60;;;;;;5052333;28;20385;-53
2021/07/30 11:22:39;;;;;;;6.55;2.70;;;25.80;75.80;;;;;;5052736;28;20033;-49
2021/07/30 11:25:10;;;;;;;2.70;2.50;;;25.60;76.10;;;;;;5052491;28;20398;-51
2021/07/30 11:27:36;;;;;;;2.95;2.45;;;25.60;76.20;;;;;;5052455;28;20061;-54
2021/07/30 11:30:02;;;;;;;5.90;2.33;;;25.60;76.70;;;;;;5051939;28;20465;-54
2021/07/30 11:32:29;;;;;;;3.90;2.50;;;25.60;75.80;;;;;;5052230;28;20048;-54
2021/07/30 11:34:55;;;;;;;4.38;2.30;;;25.60;76.00;;;;;;5051837;28;20033;-52
2021/07/30 11:37:25;;;;;;;3.65;2.50;;;25.60;76.40;;;;;;5051738;28;20382;-53
2021/07/30 11:39:53;;;;;;;5.90;2.70;;;25.60;76.60;;;;;;5051796;28;20053;-54
2021/07/30 11:42:28;;;;;;;2.70;2.50;;;25.60;75.80;;;;;;5034018;28;20025;-51
2021/07/30 11:45:04;;;;;;;6.28;2.60;;;25.60;75.80;;;;;;5052322;28;20385;-49
2021/07/30 11:47:32;;;;;;;7.18;2.83;;;25.60;76.60;;;;;;5051849;28;20486;-53
2021/07/30 11:50:03;;;;;;;2.90;2.63;;;25.70;76.80;;;;;;5051574;28;20079;-55
2021/07/30 11:52:30;;;;;;;6.70;3.05;;;25.70;76.40;;;;;;5051856;28;20051;-54
2021/07/30 11:55:14;;;;;;;2.55;2.35;;;25.80;75.90;;;;;;5051734;28;20113;-51
2021/07/30 11:57:40;;;;;;;2.90;2.67;;;25.70;75.40;;;;;;5051617;28;20053;-53
2021/07/30 12:00:06;;;;;;;5.25;2.67;;;25.70;76.10;;;;;;5033351;28;20094;-55
2021/07/30 12:02:31;;;;;;;2.97;2.78;;;25.60;76.60;;;;;;5051240;28;20043;-50
2021/07/30 12:04:58;;;;;;;5.45;2.65;;;25.50;74.60;;;;;;5051821;28;20386;-48
2021/07/30 12:07:36;;;;;;;7.35;3.08;;;25.30;75.30;;;;;;5051994;28;20021;-51
2021/07/30 12:10:05;;;;;;;5.65;2.53;;;25.20;76.20;;;;;;5051522;28;20521;-51
2021/07/30 12:12:33;;;;;;;5.30;3.33;;;25.30;77.60;;;;;;5051779;28;20036;-50
2021/07/30 12:14:59;;;;;;;6.20;2.88;;;25.40;76.30;;;;;;5052068;28;20029;-51
2021/07/30 12:17:29;;;;;;;5.45;2.67;;;25.50;75.90;;;;;;5052201;28;20043;-49
2021/07/30 12:20:16;;;;;;;3.13;2.88;;;25.50;76.60;;;;;;5052018;28;20024;-48
2021/07/30 12:22:45;;;;;;;2.90;2.63;;;25.50;77.50;;;;;;5052295;28;20044;-48
2021/07/30 12:25:31;;;;;;;2.92;2.70;;;25.50;76.60;;;;;;5056221;28;20025;-50
2021/07/30 12:28:05;;;;;;;3.05;2.70;;;25.50;77.10;;;;;;5038072;28;20277;-48
2021/07/30 12:30:31;;;;;;;4.50;3.10;;;25.50;78.20;;;;;;5055895;28;20029;-48
2021/07/30 12:32:56;;;;;;;2.92;2.70;;;25.50;77.20;;;;;;5038021;28;20811;-49
2021/07/30 12:35:35;;;;;;;4.47;2.55;;;25.60;76.40;;;;;;5056452;28;20106;-50
2021/07/30 12:38:02;;;;;;;5.55;2.13;;;25.60;74.80;;;;;;5056347;28;20029;-49
2021/07/30 12:40:28;;;;;;;2.88;2.60;;;25.60;77.00;;;;;;5055536;28;20096;-49
2021/07/30 12:43:18;;;;;;;4.07;2.95;;;25.70;76.40;;;;;;5055832;28;20323;-50
2021/07/30 12:45:47;;;;;;;2.78;2.58;;;25.80;76.10;;;;;;5055532;28;20073;-48
2021/07/30 12:48:20;;;;;;;2.97;2.72;;;25.80;74.50;;;;;;5056037;28;20024;-48